createdAt,value
2019-02-18T00:00:48.103Z,13.10
2019-02-18T00:03:16.451Z,11.97
2019-02-18T00:05:44.794Z,11.83
2019-02-18T00:08:13.146Z,13.30
2019-02-18T00:10:41.485Z,12.37
2019-02-18T00:13:09.825Z,11.93
2019-02-18T00:15:38.181Z,11.10
2019-02-18T00:18:06.546Z,11.83
2019-02-18T00:20:34.884Z,11.87
2019-02-18T00:23:03.245Z,12.33
2019-02-18T00:25:31.577Z,12.43
2019-02-18T00:27:59.917Z,11.63
2019-02-18T00:30:28.265Z,11.10
2019-02-18T00:32:56.607Z,12.10
2019-02-18T00:35:24.948Z,11.67
2019-02-18T00:37:53.290Z,13.77
2019-02-18T00:40:21.631Z,11.50
2019-02-18T00:42:49.981Z,12.60
2019-02-18T00:45:18.389Z,11.23
2019-02-18T00:47:48.156Z,11.77
2019-02-18T00:50:17.921Z,12.67
2019-02-18T00:52:46.273Z,16.83
2019-02-18T00:55:14.609Z,11.23
2019-02-18T00:57:42.957Z,10.70
2019-02-18T01:00:13.649Z,12.20
2019-02-18T01:02:42.053Z,13.73
2019-02-18T01:05:10.398Z,11.30
2019-02-18T01:07:38.739Z,10.43
2019-02-18T01:10:08.454Z,10.20
2019-02-18T01:12:36.798Z,14.17
2019-02-18T01:15:07.982Z,14.00
2019-02-18T01:17:36.334Z,13.37
2019-02-18T01:20:06.234Z,12.03
2019-02-18T01:22:34.568Z,10.27
2019-02-18T01:25:02.981Z,10.83
2019-02-18T01:27:32.585Z,10.40
2019-02-18T01:30:00.938Z,11.20
2019-02-18T01:32:29.282Z,12.73
2019-02-18T01:34:57.942Z,12.17
2019-02-18T01:37:26.285Z,10.27
2019-02-18T01:39:55.300Z,10.83
2019-02-18T01:42:23.884Z,10.47
2019-02-18T01:44:52.225Z,11.13
2019-02-18T01:47:20.563Z,13.13
2019-02-18T01:49:48.898Z,8.97
2019-02-18T01:52:17.242Z,11.83
2019-02-18T01:54:45.590Z,11.63
2019-02-18T01:57:13.934Z,9.63
2019-02-18T01:59:42.533Z,11.70
2019-02-18T02:02:10.870Z,10.17
2019-02-18T02:04:39.213Z,10.53
2019-02-18T02:07:07.578Z,10.27
2019-02-18T02:09:35.915Z,11.57
2019-02-18T02:12:04.338Z,12.13
2019-02-18T02:14:34.316Z,11.37
2019-02-18T02:17:02.729Z,12.07
2019-02-18T02:19:31.154Z,11.13
2019-02-18T02:21:59.477Z,14.53
2019-02-18T02:24:27.836Z,10.70
2019-02-18T02:26:56.174Z,11.20
2019-02-18T02:29:24.516Z,11.93
2019-02-18T02:31:52.857Z,13.03
2019-02-18T02:34:21.202Z,12.63
2019-02-18T02:36:49.554Z,11.43
2019-02-18T02:39:18.214Z,10.23
2019-02-18T02:41:46.536Z,11.30
2019-02-18T02:44:14.881Z,11.37
2019-02-18T02:46:43.226Z,11.07
2019-02-18T02:49:11.557Z,11.90
2019-02-18T02:51:39.914Z,10.83
2019-02-18T02:54:08.244Z,11.17
2019-02-18T02:56:37.378Z,12.53
2019-02-18T02:59:05.901Z,12.23
2019-02-18T03:01:34.274Z,10.93
2019-02-18T03:04:02.608Z,10.90
2019-02-18T03:06:31.026Z,18.40
2019-02-18T03:08:59.361Z,11.47
2019-02-18T03:11:28.042Z,9.93
2019-02-18T03:13:56.369Z,10.63
2019-02-18T03:16:24.720Z,11.67
2019-02-18T03:18:53.070Z,12.10
2019-02-18T03:21:21.410Z,14.83
2019-02-18T03:23:50.834Z,12.10
2019-02-18T03:26:19.184Z,13.33
2019-02-18T03:28:55.189Z,10.07
2019-02-18T03:31:24.706Z,11.77
2019-02-18T03:33:57.607Z,11.73
2019-02-18T03:36:25.937Z,11.57
2019-02-18T03:38:54.290Z,11.77
2019-02-18T03:41:22.690Z,11.27
2019-02-18T03:43:51.037Z,12.47
2019-02-18T03:46:19.405Z,10.77
2019-02-18T03:48:47.748Z,11.53
2019-02-18T03:51:16.081Z,9.87
2019-02-18T03:53:44.428Z,10.53
2019-02-18T03:56:12.769Z,11.70
2019-02-18T03:58:41.117Z,10.93
2019-02-18T04:01:09.444Z,11.10
2019-02-18T04:03:37.792Z,9.37
2019-02-18T04:06:07.389Z,11.63
2019-02-18T04:08:42.823Z,12.90
2019-02-18T04:11:05.779Z,10.97
2019-02-18T04:13:34.131Z,10.40
2019-02-18T04:16:02.472Z,12.67
2019-02-18T04:18:30.808Z,9.47
2019-02-18T04:20:59.152Z,9.93
2019-02-18T04:23:27.487Z,15.40
2019-02-18T04:25:55.841Z,10.50
2019-02-18T04:28:24.185Z,12.13
2019-02-18T04:30:52.525Z,10.17
2019-02-18T04:33:20.876Z,9.77
2019-02-18T04:35:49.213Z,10.20
2019-02-18T04:38:17.566Z,10.70
2019-02-18T04:40:45.913Z,10.07
2019-02-18T04:43:14.264Z,10.10
2019-02-18T04:45:42.605Z,10.93
2019-02-18T04:48:11.559Z,10.80
2019-02-18T04:50:40.774Z,13.80
2019-02-18T04:53:09.114Z,9.87
2019-02-18T04:55:37.455Z,13.90
2019-02-18T04:58:06.341Z,11.53
2019-02-18T05:00:34.825Z,11.90
2019-02-18T05:03:03.171Z,13.57
2019-02-18T05:05:32.687Z,10.63
2019-02-18T05:08:01.040Z,11.20
2019-02-18T05:10:29.383Z,14.57
2019-02-18T05:12:57.718Z,10.37
2019-02-18T05:15:26.055Z,11.80
2019-02-18T05:17:54.409Z,10.30
2019-02-18T05:20:22.761Z,12.50
2019-02-18T05:22:51.117Z,11.97
2019-02-18T05:25:19.470Z,11.73
2019-02-18T05:27:47.809Z,12.20
2019-02-18T05:30:16.155Z,10.60
2019-02-18T05:32:44.487Z,11.10
2019-02-18T05:35:12.829Z,11.30
2019-02-18T05:37:41.181Z,10.80
2019-02-18T05:40:10.599Z,11.47
2019-02-18T05:42:38.936Z,12.53
2019-02-18T05:45:07.850Z,12.40
2019-02-18T05:47:36.193Z,11.20
2019-02-18T05:50:05.306Z,13.23
2019-02-18T05:52:33.633Z,10.93
2019-02-18T05:55:02.035Z,12.27
2019-02-18T05:57:30.397Z,14.40
2019-02-18T05:59:58.750Z,10.80
2019-02-18T06:02:27.100Z,12.37
2019-02-18T06:04:55.466Z,14.23
2019-02-18T06:07:23.833Z,11.80
2019-02-18T06:09:52.170Z,12.23
2019-02-18T06:12:21.685Z,13.27
2019-02-18T06:14:50.096Z,12.53
2019-02-18T06:17:18.438Z,12.00
2019-02-18T06:19:46.777Z,12.67
2019-02-18T06:22:15.134Z,11.50
2019-02-18T06:24:43.462Z,12.20
2019-02-18T06:27:11.810Z,13.90
2019-02-18T06:29:40.175Z,12.43
2019-02-18T06:32:08.586Z,11.07
2019-02-18T06:34:37.365Z,12.77
2019-02-18T06:37:06.104Z,14.43
2019-02-18T06:39:41.483Z,11.93
2019-02-18T06:42:04.485Z,14.80
2019-02-18T06:44:34.465Z,11.80
2019-02-18T06:47:04.459Z,10.07
2019-02-18T06:49:34.433Z,11.17
2019-02-18T06:52:02.770Z,13.33
2019-02-18T06:54:31.118Z,11.77
2019-02-18T06:57:09.952Z,12.63
2019-02-18T06:59:39.929Z,11.63
2019-02-18T07:02:18.806Z,16.30
2019-02-18T07:04:48.782Z,13.60
2019-02-18T07:07:20.116Z,12.80
2019-02-18T07:09:51.458Z,12.10
2019-02-18T07:12:30.270Z,13.93
2019-02-18T07:14:58.610Z,10.97
2019-02-18T07:17:26.957Z,12.40
2019-02-18T07:19:55.321Z,13.63
2019-02-18T07:22:23.653Z,10.53
2019-02-18T07:24:51.985Z,11.30
2019-02-18T07:27:20.340Z,11.03
2019-02-18T07:29:48.678Z,10.67
2019-02-18T07:32:17.848Z,11.27
2019-02-18T07:34:46.196Z,13.53
2019-02-18T07:37:14.537Z,13.27
2019-02-18T07:39:42.878Z,10.57
2019-02-18T07:42:11.213Z,10.63
2019-02-18T07:44:39.561Z,12.70
2019-02-18T07:47:08.799Z,10.90
2019-02-18T07:49:37.143Z,9.70
2019-02-18T07:52:05.494Z,10.50
2019-02-18T07:54:33.858Z,12.37
2019-02-18T07:57:02.194Z,11.23
2019-02-18T07:59:30.541Z,14.53
2019-02-18T08:01:58.910Z,8.97
2019-02-18T08:04:27.256Z,11.07
2019-02-18T08:06:55.586Z,11.33
2019-02-18T08:09:25.605Z,10.50
2019-02-18T08:11:55.193Z,11.97
2019-02-18T08:14:23.579Z,16.27
2019-02-18T08:16:51.910Z,8.50
2019-02-18T08:19:20.241Z,11.00
2019-02-18T08:21:48.871Z,11.37
2019-02-18T08:24:17.209Z,9.73
2019-02-18T08:26:45.553Z,10.57
2019-02-18T08:29:13.911Z,9.83
2019-02-18T08:31:42.246Z,9.63
2019-02-18T08:34:10.579Z,10.07
2019-02-18T08:36:38.926Z,9.97
2019-02-18T08:39:07.262Z,11.43
2019-02-18T08:41:35.979Z,11.13
2019-02-18T08:44:06.860Z,9.20
2019-02-18T08:46:35.283Z,10.07
2019-02-18T08:49:03.685Z,11.33
2019-02-18T08:51:32.034Z,12.93
2019-02-18T08:54:00.407Z,8.77
2019-02-18T08:56:28.793Z,10.80
2019-02-18T08:58:57.154Z,12.67
2019-02-18T09:01:25.810Z,10.60
2019-02-18T09:03:55.735Z,11.07
2019-02-18T09:06:24.372Z,11.83
2019-02-18T09:08:52.718Z,9.83
2019-02-18T09:11:21.063Z,10.53
2019-02-18T09:13:49.403Z,11.03
2019-02-18T09:16:17.750Z,12.20
2019-02-18T09:18:47.478Z,11.47
2019-02-18T09:21:16.798Z,11.63
2019-02-18T09:23:56.328Z,10.60
2019-02-18T09:26:25.520Z,12.40
2019-02-18T09:28:53.895Z,12.40
2019-02-18T09:31:23.953Z,11.40
2019-02-18T09:33:52.290Z,15.03
2019-02-18T09:36:21.441Z,13.10
2019-02-18T09:38:50.246Z,12.67
2019-02-18T09:41:18.595Z,14.00
2019-02-18T09:43:46.937Z,15.37
2019-02-18T09:46:15.274Z,12.73
2019-02-18T09:48:43.730Z,11.73
2019-02-18T09:51:12.086Z,5.90
2019-02-18T09:53:40.488Z,13.13
2019-02-18T09:56:08.842Z,14.97
2019-02-18T09:58:37.196Z,12.93
2019-02-18T10:01:06.801Z,12.10
2019-02-18T10:03:35.224Z,17.10
2019-02-18T10:06:03.566Z,16.97
2019-02-18T10:08:31.928Z,11.77
2019-02-18T10:11:00.279Z,15.77
2019-02-18T10:13:28.665Z,20.37
2019-02-18T10:15:57.010Z,18.53
2019-02-18T10:18:25.378Z,12.90
2019-02-18T10:20:53.722Z,14.13
2019-02-18T10:23:22.061Z,12.87
2019-02-18T10:25:50.418Z,15.40
2019-02-18T10:28:18.769Z,15.53
2019-02-18T10:30:48.424Z,13.50
2019-02-18T10:33:16.761Z,13.93
2019-02-18T10:35:45.139Z,16.83
2019-02-18T10:38:13.494Z,16.70
2019-02-18T10:40:41.879Z,16.87
2019-02-18T10:43:10.261Z,15.33
2019-02-18T10:45:38.612Z,19.67
2019-02-18T10:48:11.620Z,17.50
2019-02-18T10:50:39.727Z,16.27
2019-02-18T10:53:08.080Z,16.07
2019-02-18T10:55:36.510Z,16.43
2019-02-18T10:58:04.838Z,14.90
2019-02-18T11:00:35.176Z,15.63
2019-02-18T11:03:03.538Z,18.20
2019-02-18T11:05:31.958Z,15.80
2019-02-18T11:08:00.306Z,17.53
2019-02-18T11:10:28.663Z,24.10
2019-02-18T11:12:57.014Z,17.43
2019-02-18T11:15:25.720Z,19.20
2019-02-18T11:17:54.072Z,16.50
2019-02-18T11:20:22.416Z,20.13
2019-02-18T11:22:50.764Z,19.00
2019-02-18T11:25:19.196Z,18.03
2019-02-18T11:27:47.524Z,14.90
2019-02-18T11:30:18.083Z,20.67
2019-02-18T11:32:46.439Z,19.37
2019-02-18T11:35:14.781Z,19.30
2019-02-18T11:37:43.215Z,18.53
2019-02-18T11:40:12.835Z,12.53
2019-02-18T11:42:41.265Z,14.33
2019-02-18T11:45:11.529Z,18.60
2019-02-18T11:47:39.866Z,15.30
2019-02-18T11:50:09.390Z,18.37
2019-02-18T11:52:37.750Z,17.10
2019-02-18T11:55:07.670Z,16.83
2019-02-18T11:57:38.093Z,15.13
2019-02-18T12:00:08.191Z,19.53
2019-02-18T12:02:36.544Z,15.20
2019-02-18T12:05:05.864Z,16.07
2019-02-18T12:07:34.202Z,12.90
2019-02-18T12:10:02.623Z,19.23
2019-02-18T12:12:32.410Z,18.77
2019-02-18T12:15:01.098Z,21.50
2019-02-18T12:17:29.750Z,17.10
2019-02-18T12:19:58.097Z,15.97
2019-02-18T12:22:26.455Z,16.83
2019-02-18T12:24:56.874Z,15.00
2019-02-18T12:27:29.066Z,19.60
2019-02-18T12:29:58.869Z,17.53
2019-02-18T12:32:27.208Z,23.07
2019-02-18T12:34:57.784Z,18.67
2019-02-18T12:37:26.143Z,36.97
2019-02-18T12:39:54.963Z,35.60
2019-02-18T12:42:23.321Z,36.73
2019-02-18T12:44:53.233Z,45.37
2019-02-18T12:47:23.231Z,30.37
2019-02-18T12:49:53.695Z,47.17
2019-02-18T12:52:27.552Z,37.97
2019-02-18T12:55:00.206Z,19.83
2019-02-18T12:57:27.785Z,23.93
2019-02-18T12:59:56.474Z,25.57
2019-02-18T13:02:24.949Z,25.40
2019-02-18T13:04:53.381Z,21.13
2019-02-18T13:07:21.860Z,19.60
2019-02-18T13:09:50.396Z,18.60
2019-02-18T13:12:18.825Z,21.60
2019-02-18T13:14:48.242Z,21.23
2019-02-18T13:17:16.673Z,26.90
2019-02-18T13:19:45.299Z,26.13
2019-02-18T13:22:13.650Z,23.27
2019-02-18T13:24:42.094Z,26.80
2019-02-18T13:27:10.522Z,23.17
2019-02-18T13:29:38.881Z,27.70
2019-02-18T13:32:07.306Z,22.03
2019-02-18T13:34:35.656Z,20.50
2019-02-18T13:37:04.237Z,24.00
2019-02-18T13:39:32.928Z,21.90
2019-02-18T13:42:07.347Z,26.70
2019-02-18T13:44:31.370Z,22.13
2019-02-18T13:46:59.708Z,23.53
2019-02-18T13:49:28.070Z,24.63
2019-02-18T13:51:56.991Z,16.57
2019-02-18T13:54:25.351Z,24.33
2019-02-18T13:56:53.709Z,16.70
2019-02-18T13:59:23.302Z,18.37
2019-02-18T14:01:51.697Z,17.87
2019-02-18T14:04:20.043Z,16.60
2019-02-18T14:06:49.075Z,22.43
2019-02-18T14:09:18.169Z,20.73
2019-02-18T14:11:46.742Z,20.00
2019-02-18T14:14:15.117Z,16.83
2019-02-18T14:16:43.470Z,21.23
2019-02-18T14:19:12.108Z,16.87
2019-02-18T14:21:40.605Z,17.40
2019-02-18T14:24:09.237Z,19.67
2019-02-18T14:26:37.594Z,22.90
2019-02-18T14:29:05.987Z,21.50
2019-02-18T14:31:34.351Z,19.07
2019-02-18T14:34:03.984Z,18.90
2019-02-18T14:36:32.377Z,24.00
2019-02-18T14:39:02.287Z,19.27
2019-02-18T14:41:32.228Z,15.43
2019-02-18T14:44:00.889Z,20.83
2019-02-18T14:46:29.223Z,21.40
2019-02-18T14:48:57.816Z,22.40
2019-02-18T14:51:26.310Z,17.57
2019-02-18T14:53:55.034Z,15.67
2019-02-18T14:56:23.385Z,16.77
2019-02-18T14:58:51.753Z,18.60
2019-02-18T15:01:20.110Z,18.20
2019-02-18T15:03:48.454Z,19.37
2019-02-18T15:06:16.784Z,19.97
2019-02-18T15:08:45.128Z,19.03
2019-02-18T15:11:13.647Z,15.27
2019-02-18T15:13:41.998Z,16.47
2019-02-18T15:16:10.376Z,17.53
2019-02-18T15:18:38.761Z,19.00
2019-02-18T15:21:07.167Z,24.83
2019-02-18T15:23:35.818Z,16.03
2019-02-18T15:26:04.830Z,21.80
2019-02-18T15:28:33.258Z,15.13
2019-02-18T15:31:01.922Z,16.90
2019-02-18T15:33:30.278Z,18.83
2019-02-18T15:35:58.944Z,16.97
2019-02-18T15:38:28.554Z,19.17
2019-02-18T15:40:57.600Z,18.27
2019-02-18T15:43:26.768Z,17.10
2019-02-18T15:45:55.342Z,20.33
2019-02-18T15:48:23.739Z,18.60
2019-02-18T15:50:52.177Z,17.77
2019-02-18T15:53:20.551Z,20.20
2019-02-18T15:55:49.062Z,20.60
2019-02-18T15:58:18.582Z,21.27
2019-02-18T16:00:47.006Z,21.60
2019-02-18T16:03:15.357Z,20.17
2019-02-18T16:05:43.697Z,18.13
2019-02-18T16:08:12.046Z,18.77
2019-02-18T16:10:40.401Z,14.73
2019-02-18T16:13:09.215Z,22.30
2019-02-18T16:15:39.628Z,17.77
2019-02-18T16:18:07.984Z,17.70
2019-02-18T16:20:36.330Z,17.10
2019-02-18T16:23:04.681Z,22.07
2019-02-18T16:25:33.096Z,22.20
2019-02-18T16:28:01.602Z,17.17
2019-02-18T16:30:31.626Z,16.23
2019-02-18T16:32:59.987Z,19.93
2019-02-18T16:35:28.894Z,22.93
2019-02-18T16:38:01.257Z,24.53
2019-02-18T16:40:29.353Z,15.03
2019-02-18T16:42:59.326Z,19.20
2019-02-18T16:45:27.878Z,17.13
2019-02-18T16:47:56.219Z,20.97
2019-02-18T16:50:25.302Z,19.87
2019-02-18T16:52:54.054Z,20.83
2019-02-18T16:55:22.669Z,20.40
2019-02-18T16:57:51.404Z,20.30
2019-02-18T17:00:24.359Z,21.47
2019-02-18T17:02:53.168Z,17.87
2019-02-18T17:05:21.574Z,20.53
2019-02-18T17:07:50.013Z,20.40
2019-02-18T17:10:18.445Z,18.87
2019-02-18T17:12:47.161Z,22.93
2019-02-18T17:15:17.124Z,21.47
2019-02-18T17:17:45.544Z,23.90
2019-02-18T17:20:27.165Z,21.09
2019-02-18T17:22:55.701Z,21.60
2019-02-18T17:25:26.592Z,19.37
2019-02-18T17:27:53.677Z,19.00
2019-02-18T17:30:19.509Z,24.20
2019-02-18T17:32:45.564Z,23.27
2019-02-18T17:35:12.178Z,26.30
2019-02-18T17:37:38.338Z,24.67
2019-02-18T17:40:06.088Z,22.27
2019-02-18T17:42:32.066Z,22.47
2019-02-18T17:44:58.170Z,19.53
2019-02-18T17:47:23.998Z,25.87
2019-02-18T17:49:49.806Z,22.17
2019-02-18T17:52:15.625Z,29.20
2019-02-18T17:54:41.541Z,22.43
2019-02-18T17:57:07.403Z,24.23
2019-02-18T17:59:33.225Z,27.37
2019-02-18T18:01:59.049Z,23.40
2019-02-18T18:04:24.878Z,21.80
2019-02-18T18:06:51.206Z,20.40
2019-02-18T18:09:17.050Z,21.20
2019-02-18T18:11:42.894Z,25.33
2019-02-18T18:14:11.074Z,21.73
2019-02-18T18:16:36.920Z,22.73
2019-02-18T18:19:09.162Z,26.47
2019-02-18T18:21:30.528Z,26.20
2019-02-18T18:23:56.465Z,34.73
2019-02-18T18:26:23.125Z,33.60
2019-02-18T18:28:50.881Z,33.77
2019-02-18T18:31:17.076Z,29.80
2019-02-18T18:33:42.905Z,26.30
2019-02-18T18:36:08.762Z,24.77
2019-02-18T18:38:34.709Z,23.60
2019-02-18T18:41:00.545Z,26.57
2019-02-18T18:43:33.609Z,25.17
2019-02-18T18:45:54.189Z,26.50
2019-02-18T18:48:20.134Z,24.27
2019-02-18T18:50:45.982Z,22.10
2019-02-18T18:53:11.798Z,27.60
2019-02-18T18:55:37.636Z,30.13
2019-02-18T18:58:03.500Z,29.27
2019-02-18T19:00:29.391Z,34.73
2019-02-18T19:02:55.321Z,51.93
2019-02-18T19:05:21.219Z,45.00
2019-02-18T19:07:47.037Z,38.37
2019-02-18T19:10:12.838Z,37.57
2019-02-18T19:12:38.810Z,34.77
2019-02-18T19:15:06.593Z,28.47
2019-02-18T19:17:32.840Z,28.23
2019-02-18T19:19:58.666Z,34.03
2019-02-18T19:22:25.085Z,42.40
2019-02-18T19:24:50.986Z,44.13
2019-02-18T19:27:16.801Z,32.40
2019-02-18T19:29:42.667Z,30.90
2019-02-18T19:32:08.499Z,27.80
2019-02-18T19:34:34.320Z,29.30
2019-02-18T19:37:00.153Z,27.77
2019-02-18T19:39:25.989Z,28.70
2019-02-18T19:41:52.505Z,31.63
2019-02-18T19:44:19.884Z,27.10
2019-02-18T19:46:45.894Z,29.07
2019-02-18T19:49:11.741Z,26.93
2019-02-18T19:51:37.545Z,30.03
2019-02-18T19:54:03.358Z,31.67
2019-02-18T19:56:29.156Z,23.93
2019-02-18T19:58:54.974Z,28.43
2019-02-18T20:01:21.397Z,28.37
2019-02-18T20:03:47.259Z,23.13
2019-02-18T20:06:13.075Z,22.87
2019-02-18T20:08:38.932Z,25.90
2019-02-18T20:11:04.758Z,28.17
2019-02-18T20:13:30.586Z,25.43
2019-02-18T20:15:56.423Z,24.77
2019-02-18T20:18:22.252Z,29.23
2019-02-18T20:20:48.185Z,27.30
2019-02-18T20:23:14.138Z,30.17
2019-02-18T20:25:39.958Z,25.27
2019-02-18T20:28:05.871Z,27.93
2019-02-18T20:30:32.867Z,26.43
2019-02-18T20:32:58.942Z,31.97
2019-02-18T20:35:25.777Z,29.53
2019-02-18T20:37:53.986Z,27.80
2019-02-18T20:40:20.398Z,28.20
2019-02-18T20:42:46.211Z,22.07
2019-02-18T20:45:12.518Z,29.83
2019-02-18T20:47:38.442Z,26.47
2019-02-18T20:50:05.686Z,25.13
2019-02-18T20:52:31.490Z,26.17
2019-02-18T20:54:57.327Z,35.53
2019-02-18T20:57:23.146Z,33.23
2019-02-18T20:59:49.676Z,30.43
2019-02-18T21:02:15.858Z,47.33
2019-02-18T21:04:41.913Z,39.37
2019-02-18T21:07:07.726Z,35.57
2019-02-18T21:09:33.580Z,37.03
2019-02-18T21:11:59.382Z,28.83
2019-02-18T21:14:25.236Z,27.93
2019-02-18T21:16:51.059Z,28.67
2019-02-18T21:19:17.298Z,21.70
2019-02-18T21:21:43.124Z,27.40
2019-02-18T21:24:09.941Z,27.87
2019-02-18T21:26:36.760Z,27.27
2019-02-18T21:29:02.781Z,27.70
2019-02-18T21:31:28.586Z,27.13
2019-02-18T21:33:54.414Z,27.40
2019-02-18T21:36:20.218Z,29.20
2019-02-18T21:38:46.655Z,32.80
2019-02-18T21:41:12.466Z,27.87
2019-02-18T21:43:38.292Z,29.77
2019-02-18T21:46:04.201Z,29.60
2019-02-18T21:48:30.700Z,31.50
2019-02-18T21:50:56.675Z,31.93
2019-02-18T21:53:22.490Z,36.93
2019-02-18T21:55:48.378Z,32.67
2019-02-18T21:58:14.761Z,29.67
2019-02-18T22:00:41.038Z,35.07
2019-02-18T22:03:06.890Z,33.93
2019-02-18T22:05:32.838Z,35.03
2019-02-18T22:08:00.352Z,34.43
2019-02-18T22:10:26.385Z,34.77
2019-02-18T22:12:52.206Z,28.83
2019-02-18T22:15:18.027Z,26.50
2019-02-18T22:17:43.887Z,27.87
2019-02-18T22:20:10.808Z,29.60
2019-02-18T22:22:36.658Z,30.60
2019-02-18T22:25:03.281Z,32.87
2019-02-18T22:27:29.085Z,26.20
2019-02-18T22:29:54.898Z,30.90
2019-02-18T22:32:20.708Z,27.80
2019-02-18T22:34:46.513Z,29.30
2019-02-18T22:37:12.328Z,33.27
2019-02-18T22:39:38.129Z,27.47
2019-02-18T22:42:03.993Z,29.20
2019-02-18T22:44:30.306Z,30.07
2019-02-18T22:46:56.179Z,30.90
2019-02-18T22:49:21.990Z,28.90
2019-02-18T22:51:47.810Z,32.83
2019-02-18T22:54:13.636Z,32.63
2019-02-18T22:56:40.698Z,32.43
2019-02-18T22:59:06.786Z,31.60
2019-02-18T23:01:32.585Z,30.50
2019-02-18T23:03:58.622Z,32.10
2019-02-18T23:06:24.438Z,35.27
2019-02-18T23:08:50.255Z,28.70
2019-02-18T23:11:16.105Z,36.30
2019-02-18T23:13:41.905Z,38.13
2019-02-18T23:16:07.733Z,35.87
2019-02-18T23:18:33.550Z,32.43
2019-02-18T23:20:59.357Z,30.33
2019-02-18T23:23:25.174Z,36.13
2019-02-18T23:25:51.077Z,33.23
2019-02-18T23:28:17.193Z,33.13
2019-02-18T23:30:42.998Z,40.37
2019-02-18T23:33:08.817Z,39.20
2019-02-18T23:35:34.622Z,29.60
2019-02-18T23:38:00.749Z,32.13
2019-02-18T23:40:26.554Z,31.80
2019-02-18T23:42:52.407Z,33.60
2019-02-18T23:45:18.211Z,26.87
2019-02-18T23:47:44.059Z,21.07
2019-02-18T23:50:09.869Z,28.33
2019-02-18T23:52:35.689Z,24.80
2019-02-18T23:55:01.513Z,22.03
2019-02-18T23:57:27.430Z,18.57
2019-02-18T23:59:53.265Z,23.33
